Time;durP1;ratioP1;P1;durP2;ratioP2;P2;SDS_P1;SDS_P2;PMS_P1;PMS_P2;Temp;Humidity;BMP_temperature;BMP_pressure;BME280_temperature;BME280_humidity;BME280_pressure;Samples;Min_cycle;Max_cycle;Signal;HPM_P1;HPM_P2
2023/05/27 00:01:56;;;;;;;10.70;4.88;;;8.20;99.90;;;;;;5038286;28;20044;-72
2023/05/27 00:04:22;;;;;;;10.23;4.63;;;8.10;99.90;;;;;;5045197;28;20049;-72
2023/05/27 00:06:48;;;;;;;13.13;5.00;;;8.00;99.90;;;;;;5038249;28;20499;-72
2023/05/27 00:09:14;;;;;;;13.13;5.45;;;8.00;99.90;;;;;;5045519;28;20507;-72
2023/05/27 00:11:40;;;;;;;13.27;5.90;;;7.90;99.90;;;;;;5028648;28;20075;-73
2023/05/27 00:14:06;;;;;;;10.90;4.93;;;7.90;99.90;;;;;;5027825;28;20032;-72
2023/05/27 00:16:35;;;;;;;13.50;5.45;;;7.90;99.90;;;;;;5024796;28;20041;-72
2023/05/27 00:19:05;;;;;;;12.18;5.53;;;7.80;99.90;;;;;;5023639;28;20123;-74
2023/05/27 00:21:31;;;;;;;14.90;5.67;;;7.80;99.90;;;;;;5043171;28;20150;-72
2023/05/27 00:23:59;;;;;;;11.25;5.50;;;7.70;99.90;;;;;;5038110;28;20325;-72
2023/05/27 00:26:25;;;;;;;12.90;5.30;;;7.60;99.90;;;;;;5037415;28;20049;-72
2023/05/27 00:28:52;;;;;;;13.20;5.68;;;7.50;99.90;;;;;;5038014;28;20408;-72
2023/05/27 00:31:18;;;;;;;11.68;5.55;;;7.50;99.90;;;;;;5042699;28;20041;-73
2023/05/27 00:33:44;;;;;;;14.07;6.32;;;7.50;99.90;;;;;;5018922;28;20099;-73
2023/05/27 00:36:10;;;;;;;14.35;6.03;;;7.50;99.90;;;;;;5031815;28;20048;-73
2023/05/27 00:38:36;;;;;;;16.05;6.32;;;7.40;99.90;;;;;;5016128;28;20053;-72
2023/05/27 00:41:04;;;;;;;12.23;5.50;;;7.40;99.90;;;;;;5031825;28;20033;-73
2023/05/27 00:43:32;;;;;;;11.88;5.93;;;7.40;99.90;;;;;;5044177;28;20393;-71
2023/05/27 00:45:58;;;;;;;13.77;6.28;;;7.40;99.90;;;;;;5032113;28;20036;-72
2023/05/27 00:48:25;;;;;;;17.00;6.68;;;7.40;99.90;;;;;;5047860;28;20060;-72
2023/05/27 00:50:51;;;;;;;14.85;6.72;;;7.40;99.90;;;;;;5058239;28;20105;-72
2023/05/27 00:53:17;;;;;;;15.10;6.07;;;7.30;99.90;;;;;;5036232;28;20139;-72
2023/05/27 00:55:43;;;;;;;15.10;6.38;;;7.20;99.90;;;;;;5051414;28;20055;-72
2023/05/27 00:58:09;;;;;;;14.73;5.60;;;7.20;99.90;;;;;;5046191;28;20516;-72
2023/05/27 01:00:38;;;;;;;13.48;6.28;;;7.10;99.90;;;;;;5034227;28;20072;-71
2023/05/27 01:03:06;;;;;;;11.85;5.55;;;7.00;99.90;;;;;;5026119;28;20622;-72
2023/05/27 01:05:32;;;;;;;14.75;6.20;;;7.00;99.90;;;;;;5029070;28;20689;-71
2023/05/27 01:08:11;;;;;;;10.43;5.45;;;6.90;99.90;;;;;;5054075;28;20047;-72
2023/05/27 01:10:37;;;;;;;12.75;5.80;;;7.00;99.90;;;;;;5049421;28;20457;-72
2023/05/27 01:13:07;;;;;;;13.07;6.40;;;7.00;99.90;;;;;;5028922;28;20060;-72
2023/05/27 01:15:34;;;;;;;13.85;6.53;;;7.00;99.90;;;;;;5035739;28;20175;-72
2023/05/27 01:18:02;;;;;;;13.07;6.15;;;7.00;99.90;;;;;;5035214;28;20097;-72
2023/05/27 01:20:29;;;;;;;16.52;6.32;;;7.00;99.90;;;;;;5053508;28;20052;-73
2023/05/27 01:22:57;;;;;;;12.40;5.88;;;7.00;99.90;;;;;;5036641;28;20090;-73
2023/05/27 01:25:26;;;;;;;12.70;6.95;;;7.00;99.90;;;;;;5023412;28;20512;-73
2023/05/27 01:27:55;;;;;;;15.55;6.55;;;7.00;99.90;;;;;;5024996;28;20331;-73
2023/05/27 01:30:25;;;;;;;16.17;7.55;;;7.00;99.90;;;;;;5027574;28;20044;-73
2023/05/27 01:33:31;;;;;;;13.38;6.57;;;7.00;99.90;;;;;;5033991;28;20072;-73
2023/05/27 01:36:04;;;;;;;11.38;5.60;;;6.90;99.90;;;;;;5029892;28;20175;-73
2023/05/27 01:38:33;;;;;;;11.35;6.18;;;6.80;99.90;;;;;;5055697;28;20060;-73
2023/05/27 01:40:59;;;;;;;12.95;5.55;;;6.70;99.90;;;;;;5059975;28;20044;-73
2023/05/27 01:43:26;;;;;;;13.88;6.55;;;6.70;99.90;;;;;;5031125;28;20067;-73
2023/05/27 01:45:52;;;;;;;11.93;6.63;;;6.80;99.90;;;;;;5056469;28;20036;-72
2023/05/27 01:48:19;;;;;;;11.80;6.63;;;6.80;99.90;;;;;;5034292;28;20045;-73
2023/05/27 01:50:45;;;;;;;14.00;7.25;;;6.80;99.90;;;;;;5031043;28;20049;-73
2023/05/27 01:53:11;;;;;;;13.82;6.88;;;6.90;99.90;;;;;;5058286;28;20053;-73
2023/05/27 01:55:37;;;;;;;15.88;7.32;;;6.80;99.90;;;;;;5035536;28;20503;-73
2023/05/27 01:58:04;;;;;;;14.35;6.93;;;6.80;99.90;;;;;;5034338;28;20111;-73
2023/05/27 02:00:29;;;;;;;13.93;6.57;;;6.80;99.90;;;;;;5038780;28;20045;-73
2023/05/27 02:02:55;;;;;;;11.63;6.60;;;6.80;99.90;;;;;;5035324;28;20040;-72
2023/05/27 02:05:21;;;;;;;15.23;6.80;;;6.80;99.90;;;;;;5052647;28;20046;-72
2023/05/27 02:07:47;;;;;;;13.15;6.90;;;6.80;99.90;;;;;;5052227;28;20033;-74
2023/05/27 02:10:13;;;;;;;10.05;6.00;;;6.80;99.90;;;;;;5053596;28;20208;-74
2023/05/27 02:12:38;;;;;;;12.40;6.38;;;6.80;99.90;;;;;;5031304;28;20127;-74
2023/05/27 02:15:05;;;;;;;14.43;6.65;;;6.70;99.90;;;;;;5059490;28;20130;-74
2023/05/27 02:17:30;;;;;;;11.40;6.72;;;6.70;99.90;;;;;;5033889;28;20052;-74
2023/05/27 02:19:56;;;;;;;15.10;7.25;;;6.70;99.90;;;;;;5022051;28;20047;-75
2023/05/27 02:22:22;;;;;;;14.10;6.97;;;6.70;99.90;;;;;;5032412;28;20040;-75
2023/05/27 02:24:48;;;;;;;13.10;7.03;;;6.70;99.90;;;;;;5046634;28;20044;-75
2023/05/27 02:27:17;;;;;;;14.27;7.13;;;6.70;99.90;;;;;;5050667;28;20460;-76
2023/05/27 02:29:43;;;;;;;13.32;7.15;;;6.70;99.90;;;;;;5055543;28;20046;-75
2023/05/27 06:46:08;;;;;;;22.65;7.53;;;10.50;99.90;;;;;;5105994;27;20538;-74
2023/05/27 06:48:34;;;;;;;23.00;7.65;;;11.10;99.90;;;;;;5069300;28;20582;-74
2023/05/27 06:51:00;;;;;;;18.65;7.20;;;11.20;99.90;;;;;;5104673;28;20039;-74
2023/05/27 06:53:26;;;;;;;20.13;6.53;;;11.20;99.90;;;;;;5067794;28;20044;-74
2023/05/27 06:55:51;;;;;;;20.02;6.85;;;11.20;99.90;;;;;;5068522;28;20114;-75
2023/05/27 06:58:17;;;;;;;22.00;6.93;;;11.20;99.90;;;;;;5091273;28;20422;-75
2023/05/27 07:00:43;;;;;;;21.25;7.63;;;11.30;99.90;;;;;;5106034;28;20514;-75
2023/05/27 07:03:09;;;;;;;19.65;6.82;;;11.40;99.90;;;;;;5106444;28;20451;-74
2023/05/27 07:05:35;;;;;;;19.55;7.05;;;11.50;99.90;;;;;;5106559;28;20179;-74
2023/05/27 07:08:01;;;;;;;20.15;6.93;;;11.60;99.90;;;;;;5102690;28;20456;-74
2023/05/27 07:10:26;;;;;;;15.52;5.55;;;11.80;99.90;;;;;;5069995;28;20235;-73
2023/05/27 07:12:52;;;;;;;18.10;5.38;;;11.90;99.90;;;;;;5087680;28;20126;-74
2023/05/27 07:15:18;;;;;;;17.33;5.65;;;12.00;99.90;;;;;;5078732;28;20053;-74
2023/05/27 07:17:44;;;;;;;19.13;5.82;;;12.20;99.90;;;;;;5085310;28;20325;-74
2023/05/27 07:20:10;;;;;;;19.42;6.43;;;12.30;99.90;;;;;;5070848;28;20350;-75
2023/05/27 07:22:36;;;;;;;15.05;5.50;;;12.40;99.90;;;;;;5104381;28;20125;-75
2023/05/27 07:25:02;;;;;;;18.38;5.95;;;12.60;99.90;;;;;;5106863;27;20101;-74
2023/05/27 07:27:28;;;;;;;14.95;4.95;;;12.60;99.90;;;;;;5104636;28;20305;-75
2023/05/27 07:29:54;;;;;;;17.45;4.75;;;12.70;99.90;;;;;;5075130;28;20122;-75
2023/05/27 07:32:21;;;;;;;16.10;5.38;;;12.80;99.90;;;;;;5106551;28;20266;-75
2023/05/27 07:34:47;;;;;;;18.50;5.82;;;13.00;99.90;;;;;;5090239;28;20430;-73
2023/05/27 07:37:13;;;;;;;14.52;5.40;;;13.10;99.90;;;;;;5072743;28;20047;-77
2023/05/27 07:39:39;;;;;;;12.90;4.97;;;13.20;99.90;;;;;;5075048;28;20091;-77
2023/05/27 07:42:05;;;;;;;14.77;5.32;;;13.40;99.90;;;;;;5085708;28;20953;-73
2023/05/27 07:44:31;;;;;;;15.45;4.93;;;13.50;99.90;;;;;;5090355;28;20093;-75
2023/05/27 07:46:57;;;;;;;18.90;5.68;;;13.60;99.90;;;;;;5089354;28;20439;-74
2023/05/27 07:49:24;;;;;;;15.82;5.57;;;13.60;99.90;;;;;;5077207;28;20079;-75
2023/05/27 07:51:50;;;;;;;14.85;5.53;;;13.80;99.90;;;;;;5054236;28;20529;-74
2023/05/27 07:54:16;;;;;;;19.20;5.53;;;14.00;99.90;;;;;;5054835;28;20040;-75
2023/05/27 07:56:46;;;;;;;17.70;5.82;;;14.10;99.90;;;;;;5056251;28;20086;-78
2023/05/27 07:59:12;;;;;;;;;;;14.20;99.90;;;;;;5055984;28;20076;-77
2023/05/27 08:01:38;;;;;;;16.40;5.68;;;14.30;99.90;;;;;;5089551;28;20859;-75
2023/05/27 08:04:04;;;;;;;18.85;5.55;;;14.30;99.90;;;;;;5089859;28;20261;-76
2023/05/27 08:06:30;;;;;;;13.57;5.00;;;14.30;99.90;;;;;;5072940;28;20421;-76
2023/05/27 08:08:55;;;;;;;14.00;5.10;;;14.30;99.90;;;;;;5092339;28;20502;-75
2023/05/27 08:11:22;;;;;;;21.35;6.35;;;14.30;99.90;;;;;;5073104;28;20047;-76
2023/05/27 08:13:48;;;;;;;19.13;5.50;;;14.40;99.90;;;;;;5069774;28;20039;-75
2023/05/27 08:16:13;;;;;;;15.07;6.07;;;14.40;99.90;;;;;;5072187;28;20439;-76
2023/05/27 08:18:39;;;;;;;14.60;6.45;;;14.40;99.90;;;;;;5049017;28;20085;-75
2023/05/27 08:21:05;;;;;;;15.80;5.97;;;14.60;99.90;;;;;;5068764;28;20138;-76
2023/05/27 08:23:31;;;;;;;15.75;5.63;;;14.70;99.90;;;;;;5055322;28;20118;-76
2023/05/27 08:25:57;;;;;;;18.25;5.45;;;14.80;99.90;;;;;;5067437;28;20427;-76
2023/05/27 08:28:23;;;;;;;15.88;5.93;;;14.80;99.90;;;;;;5054084;28;20058;-76
2023/05/27 08:30:49;;;;;;;14.95;5.18;;;14.80;99.90;;;;;;5050489;28;20039;-76
2023/05/27 08:33:15;;;;;;;13.55;5.25;;;14.80;99.90;;;;;;5070683;28;20437;-76
2023/05/27 08:35:40;;;;;;;15.95;5.85;;;15.00;99.90;;;;;;5068962;28;20262;-74
2023/05/27 08:38:06;;;;;;;13.60;5.22;;;15.10;99.90;;;;;;5071270;28;20036;-75
2023/05/27 08:40:32;;;;;;;16.40;5.78;;;15.20;99.90;;;;;;5074697;28;20043;-74
2023/05/27 08:42:58;;;;;;;20.13;6.45;;;15.40;99.90;;;;;;5055783;28;20048;-74
2023/05/27 08:45:24;;;;;;;15.52;5.68;;;15.60;99.90;;;;;;5045062;28;20177;-74
2023/05/27 08:47:52;;;;;;;15.48;5.47;;;15.70;99.90;;;;;;5054100;28;20466;-75
2023/05/27 08:50:18;;;;;;;16.85;5.35;;;15.90;99.90;;;;;;5056652;28;20079;-76
2023/05/27 08:52:52;;;;;;;18.20;6.55;;;16.10;99.90;;;;;;5060345;28;20124;-75
2023/05/27 08:55:21;;;;;;;17.55;6.63;;;16.20;99.90;;;;;;5087218;28;20051;-75
2023/05/27 08:57:56;;;;;;;18.98;5.65;;;16.30;99.90;;;;;;5074256;28;20086;-76
2023/05/27 09:00:23;;;;;;;17.52;6.53;;;16.40;99.90;;;;;;5069891;28;20089;-76
2023/05/27 09:02:49;;;;;;;17.17;5.90;;;16.40;99.90;;;;;;5072503;28;20130;-75
2023/05/27 09:05:16;;;;;;;17.30;6.03;;;16.40;99.90;;;;;;5071477;28;20620;-75
2023/05/27 09:07:42;;;;;;;16.48;5.72;;;16.30;99.90;;;;;;5088901;28;20052;-76
2023/05/27 09:10:08;;;;;;;16.48;6.03;;;16.20;99.90;;;;;;5092336;28;20470;-75
2023/05/27 09:12:35;;;;;;;11.35;4.72;;;16.20;99.90;;;;;;5069080;28;21307;-76
2023/05/27 09:15:02;;;;;;;15.60;6.47;;;16.30;99.90;;;;;;5072122;28;20434;-75
2023/05/27 09:17:29;;;;;;;16.10;5.72;;;16.50;99.90;;;;;;5092039;28;20438;-75
2023/05/27 09:19:55;;;;;;;14.55;6.13;;;16.80;99.90;;;;;;5087713;28;20083;-75
2023/05/27 09:22:40;;;;;;;15.45;6.05;;;17.00;99.90;;;;;;5070220;28;20078;-76
2023/05/27 09:25:15;;;;;;;16.33;5.80;;;17.20;99.90;;;;;;5090303;28;20287;-75
2023/05/27 09:27:43;;;;;;;17.23;6.75;;;17.30;99.90;;;;;;5075709;28;20987;-74
2023/05/27 09:30:13;;;;;;;16.42;5.85;;;17.50;99.90;;;;;;5085250;28;20290;-75
2023/05/27 09:32:39;;;;;;;14.20;5.60;;;17.50;99.90;;;;;;5059230;28;20058;-76
2023/05/27 09:35:07;;;;;;;13.75;5.47;;;17.60;99.90;;;;;;5068812;28;20035;-75
2023/05/27 09:37:34;;;;;;;14.70;6.07;;;17.60;99.90;;;;;;5073251;28;20048;-75
2023/05/27 09:40:14;;;;;;;12.20;5.60;;;17.60;99.90;;;;;;5072244;28;20072;-75
2023/05/27 09:42:44;;;;;;;16.85;6.40;;;17.50;99.20;;;;;;5071385;28;20051;-76
2023/05/27 09:45:17;;;;;;;16.40;6.03;;;17.50;99.60;;;;;;5085998;28;20115;-75
2023/05/27 09:47:48;;;;;;;16.00;6.18;;;17.40;99.80;;;;;;5086420;28;20181;-74
2023/05/27 09:50:15;;;;;;;15.00;5.60;;;17.50;99.50;;;;;;5066872;28;20198;-74
2023/05/27 09:52:41;;;;;;;17.88;6.13;;;17.60;99.80;;;;;;5070078;28;20059;-74
2023/05/27 09:55:12;;;;;;;14.82;5.50;;;17.70;99.90;;;;;;5085538;28;20047;-74
2023/05/27 09:57:42;;;;;;;15.18;5.50;;;17.70;99.70;;;;;;5072291;28;20036;-75
2023/05/27 10:00:13;;;;;;;15.90;6.38;;;17.80;98.90;;;;;;5089294;28;20101;-75
2023/05/27 10:02:48;;;;;;;15.50;5.82;;;17.80;98.10;;;;;;5087602;28;20040;-74
2023/05/27 10:05:16;;;;;;;17.48;6.05;;;17.90;98.30;;;;;;5072435;28;20083;-75
2023/05/27 10:07:46;;;;;;;13.10;5.90;;;17.90;97.80;;;;;;5088435;28;20050;-75
2023/05/27 10:10:16;;;;;;;;;;;18.00;97.30;;;;;;5089099;28;20047;-75
2023/05/27 10:12:48;;;;;;;14.05;5.38;;;18.20;97.70;;;;;;5069975;28;19938;-76
2023/05/27 10:15:28;;;;;;;18.63;6.68;;;18.30;97.50;;;;;;5085485;28;20072;-76
2023/05/27 10:18:01;;;;;;;14.43;6.10;;;18.20;95.20;;;;;;5072207;28;20135;-76
2023/05/27 10:20:38;;;;;;;17.13;5.95;;;18.20;95.90;;;;;;5091291;28;20333;-75
2023/05/27 10:23:15;;;;;;;17.10;6.75;;;18.30;95.50;;;;;;5074385;28;20494;-77
2023/05/27 10:25:52;;;;;;;16.27;5.80;;;18.50;95.60;;;;;;5070344;28;20486;-76
2023/05/27 10:28:27;;;;;;;17.70;5.93;;;18.60;93.90;;;;;;5073329;28;20051;-76
2023/05/27 10:31:03;;;;;;;12.55;5.63;;;18.70;94.60;;;;;;5071373;28;20428;-76
2023/05/27 10:33:35;;;;;;;17.20;6.60;;;18.60;93.40;;;;;;5070235;28;20430;-76
2023/05/27 10:36:10;;;;;;;14.93;5.70;;;18.60;92.50;;;;;;5057488;28;20035;-75
2023/05/27 10:38:56;;;;;;;16.75;5.85;;;18.60;93.20;;;;;;5071733;28;20286;-75
2023/05/27 10:41:22;;;;;;;13.52;5.78;;;18.80;93.00;;;;;;5069951;28;20097;-74
2023/05/27 10:43:58;;;;;;;14.30;6.25;;;18.80;91.80;;;;;;5054973;28;20039;-75
2023/05/27 10:46:28;;;;;;;17.58;5.43;;;18.70;92.00;;;;;;5072150;28;20040;-75
2023/05/27 10:48:54;;;;;;;13.68;5.93;;;18.80;92.50;;;;;;5053932;28;20043;-75
2023/05/27 10:51:32;;;;;;;11.85;5.35;;;18.90;91.90;;;;;;5057644;28;20566;-75
2023/05/27 10:54:04;;;;;;;10.65;5.05;;;19.00;90.20;;;;;;5092178;28;20089;-76
2023/05/27 10:56:30;;;;;;;14.15;5.78;;;19.00;86.50;;;;;;5069778;28;20052;-76
2023/05/27 10:58:57;;;;;;;16.33;6.22;;;19.00;88.10;;;;;;5073035;28;20055;-76
2023/05/27 11:01:28;;;;;;;13.05;5.72;;;19.00;86.70;;;;;;5071994;28;20396;-76
2023/05/27 11:03:54;;;;;;;14.20;5.18;;;19.00;85.30;;;;;;5071526;28;20439;-76
2023/05/27 11:06:20;;;;;;;15.00;5.30;;;19.00;87.10;;;;;;5068337;28;20583;-76
2023/05/27 11:08:47;;;;;;;13.55;5.82;;;19.00;89.80;;;;;;5055717;28;20093;-76
2023/05/27 11:11:19;;;;;;;15.27;5.88;;;19.10;87.50;;;;;;5089198;28;20686;-76
2023/05/27 11:13:46;;;;;;;14.48;5.43;;;19.20;87.90;;;;;;5087471;28;20747;-77
2023/05/27 11:16:13;;;;;;;12.30;5.13;;;19.30;86.50;;;;;;5070509;28;20105;-77
2023/05/27 11:18:41;;;;;;;16.52;6.55;;;19.50;84.30;;;;;;5088284;28;20128;-77
2023/05/27 11:21:08;;;;;;;13.75;5.38;;;19.60;87.40;;;;;;5072809;28;20040;-78
2023/05/27 11:23:48;;;;;;;15.35;5.53;;;19.70;86.40;;;;;;5073359;28;20044;-75
2023/05/27 11:26:17;;;;;;;15.77;5.85;;;19.80;85.40;;;;;;5108806;27;20040;-75
2023/05/27 11:28:57;;;;;;;15.75;5.50;;;19.80;85.20;;;;;;5090068;28;20102;-75
2023/05/27 11:31:31;;;;;;;12.13;5.03;;;19.90;84.20;;;;;;5089417;28;20565;-76
2023/05/27 11:34:01;;;;;;;15.65;6.45;;;19.90;83.00;;;;;;5090888;28;20565;-76
2023/05/27 11:36:30;;;;;;;14.30;5.38;;;20.00;82.50;;;;;;5093128;28;20411;-75
2023/05/27 11:39:00;;;;;;;12.90;4.53;;;20.10;83.90;;;;;;5092633;28;20043;-76
2023/05/27 11:41:28;;;;;;;12.77;5.00;;;20.10;83.50;;;;;;5056972;28;20040;-75
2023/05/27 11:44:05;;;;;;;12.18;5.30;;;20.20;82.00;;;;;;5073451;28;20036;-75
2023/05/27 11:46:37;;;;;;;13.45;5.53;;;20.20;81.90;;;;;;5089617;28;20503;-74
2023/05/27 11:49:06;;;;;;;13.93;5.43;;;20.20;78.90;;;;;;5093408;28;20448;-75
2023/05/27 11:51:34;;;;;;;12.95;5.22;;;20.00;79.10;;;;;;5073642;28;20511;-75
2023/05/27 11:54:00;;;;;;;15.23;5.35;;;19.90;80.10;;;;;;5068105;28;20086;-76
2023/05/27 11:56:28;;;;;;;13.63;5.60;;;20.00;80.10;;;;;;5072922;28;20076;-76
2023/05/27 11:58:55;;;;;;;14.27;5.35;;;20.10;81.00;;;;;;5092598;28;20100;-77
2023/05/27 12:01:22;;;;;;;15.40;5.78;;;20.20;80.80;;;;;;5059107;28;20860;-76
2023/05/27 12:03:47;;;;;;;13.88;5.80;;;20.30;78.80;;;;;;5066362;28;20115;-74
2023/05/27 12:06:13;;;;;;;13.85;5.40;;;20.30;77.80;;;;;;5056193;28;20044;-74
2023/05/27 12:08:41;;;;;;;13.95;5.90;;;20.30;77.00;;;;;;5076494;28;20056;-76
2023/05/27 12:11:11;;;;;;;11.98;5.57;;;20.40;76.90;;;;;;5075298;28;21011;-76
2023/05/27 12:13:37;;;;;;;13.38;5.00;;;20.40;76.60;;;;;;5077745;28;20055;-76
2023/05/27 12:16:03;;;;;;;15.35;5.05;;;20.40;76.60;;;;;;5071713;28;20042;-75
2023/05/27 12:18:33;;;;;;;12.60;4.40;;;20.50;79.50;;;;;;5075201;28;20086;-77
2023/05/27 12:21:02;;;;;;;14.35;5.68;;;20.60;79.20;;;;;;5088447;28;20121;-75
2023/05/27 12:23:28;;;;;;;14.55;5.50;;;20.70;76.60;;;;;;5061343;28;20046;-77
2023/05/27 12:25:54;;;;;;;12.27;4.70;;;20.80;76.30;;;;;;5054565;28;20055;-77
2023/05/27 12:28:19;;;;;;;11.98;5.05;;;21.00;76.20;;;;;;5057258;28;20116;-75
2023/05/27 12:30:48;;;;;;;11.63;5.10;;;21.00;75.10;;;;;;5054513;28;20046;-75
2023/05/27 12:33:14;;;;;;;12.63;5.75;;;21.00;74.70;;;;;;5043011;28;20487;-76
2023/05/27 12:35:40;;;;;;;13.65;5.15;;;20.90;73.40;;;;;;5089954;28;20561;-76
2023/05/27 12:38:06;;;;;;;13.25;5.45;;;21.00;72.60;;;;;;5091130;28;20056;-76
2023/05/27 12:40:32;;;;;;;11.65;5.40;;;21.10;72.00;;;;;;5088525;28;20058;-76
2023/05/27 12:42:59;;;;;;;12.02;5.05;;;21.10;70.70;;;;;;5089846;28;20077;-75
2023/05/27 12:45:26;;;;;;;14.38;5.47;;;21.20;72.00;;;;;;5054264;28;20039;-75
2023/05/27 12:47:53;;;;;;;14.98;5.47;;;21.50;72.50;;;;;;5073929;28;20507;-76
2023/05/27 12:50:19;;;;;;;11.75;5.68;;;21.50;70.40;;;;;;5069867;28;20060;-76
2023/05/27 12:52:46;;;;;;;12.93;5.25;;;21.40;69.60;;;;;;5091833;28;20043;-76
2023/05/27 12:55:19;;;;;;;14.07;5.18;;;21.30;72.00;;;;;;5056773;28;20130;-75
2023/05/27 12:57:47;;;;;;;13.65;5.68;;;21.30;71.90;;;;;;5042674;28;20513;-76
2023/05/27 13:00:14;;;;;;;12.85;5.18;;;21.30;72.60;;;;;;5071393;28;20872;-76
2023/05/27 13:02:40;;;;;;;11.25;5.25;;;21.50;73.00;;;;;;5090391;28;20039;-76
2023/05/27 13:05:06;;;;;;;13.02;5.10;;;21.60;71.40;;;;;;5066501;28;20113;-76
2023/05/27 13:07:33;;;;;;;13.23;5.35;;;21.60;70.30;;;;;;5088739;28;20054;-76
2023/05/27 13:10:04;;;;;;;14.07;5.70;;;21.60;70.80;;;;;;5089144;28;20043;-76
2023/05/27 13:12:32;;;;;;;16.00;6.03;;;21.60;67.90;;;;;;5072042;28;20238;-77
2023/05/27 13:15:00;;;;;;;11.70;5.43;;;21.40;67.80;;;;;;5054664;28;20546;-76
2023/05/27 13:17:26;;;;;;;13.27;5.13;;;21.40;68.70;;;;;;5090074;28;20043;-77
2023/05/27 13:19:52;;;;;;;13.07;5.10;;;21.50;69.60;;;;;;5058717;28;20046;-76
2023/05/27 13:22:18;;;;;;;14.13;5.25;;;21.60;69.60;;;;;;5056868;28;20487;-76
2023/05/27 13:24:44;;;;;;;12.93;5.78;;;21.70;68.70;;;;;;5089036;28;20112;-76
2023/05/27 13:27:10;;;;;;;13.90;5.97;;;21.80;67.80;;;;;;5040742;28;20090;-75
2023/05/27 13:29:36;;;;;;;11.25;4.97;;;21.80;66.10;;;;;;5085851;28;20039;-76
2023/05/27 13:32:03;;;;;;;11.98;5.38;;;21.90;65.20;;;;;;5039945;28;20040;-74
2023/05/27 13:34:32;;;;;;;14.32;6.07;;;21.90;66.00;;;;;;5052632;28;20043;-76
2023/05/27 13:36:58;;;;;;;12.32;5.85;;;22.00;65.80;;;;;;5087365;28;20047;-76
2023/05/27 13:39:24;;;;;;;12.50;5.43;;;22.00;64.70;;;;;;5071664;28;20069;-76
2023/05/27 13:41:50;;;;;;;12.25;5.60;;;21.90;65.00;;;;;;5072765;28;20503;-77
2023/05/27 13:44:16;;;;;;;11.93;5.38;;;21.90;66.90;;;;;;5070941;28;20568;-76
2023/05/27 13:46:42;;;;;;;13.38;5.10;;;22.00;66.60;;;;;;5069404;28;20055;-75
2023/05/27 13:49:08;;;;;;;12.52;5.32;;;22.10;67.70;;;;;;5059695;28;20046;-76
2023/05/27 13:51:42;;;;;;;14.65;5.72;;;22.20;67.90;;;;;;5073189;28;20514;-76
2023/05/27 13:54:08;;;;;;;13.48;5.35;;;22.20;66.80;;;;;;5089778;28;20044;-76
2023/05/27 13:56:33;;;;;;;13.82;5.63;;;22.20;67.30;;;;;;5089066;28;20047;-76
2023/05/27 13:59:03;;;;;;;14.07;4.68;;;22.30;66.60;;;;;;5076457;28;20050;-76
2023/05/27 14:01:30;;;;;;;11.82;5.03;;;22.30;64.50;;;;;;5071519;28;20723;-76
2023/05/27 14:03:59;;;;;;;10.35;4.13;;;22.30;65.10;;;;;;5071447;28;20141;-76
2023/05/27 14:06:25;;;;;;;12.13;4.93;;;22.40;65.50;;;;;;5040448;28;20498;-76
2023/05/27 14:08:52;;;;;;;12.55;5.45;;;22.60;65.20;;;;;;5053847;28;20333;-75
2023/05/27 14:11:18;;;;;;;15.27;5.90;;;22.60;64.80;;;;;;5070410;28;20589;-76
2023/05/27 14:13:44;;;;;;;13.63;4.93;;;22.60;65.20;;;;;;5057615;28;20050;-76
2023/05/27 14:16:09;;;;;;;12.38;4.97;;;22.60;64.70;;;;;;5081669;28;20039;-76
2023/05/27 14:18:36;;;;;;;14.98;5.05;;;22.70;64.50;;;;;;5090444;28;20108;-75
2023/05/27 14:21:01;;;;;;;10.55;4.68;;;22.70;64.40;;;;;;5069126;28;20167;-77
2023/05/27 14:23:27;;;;;;;13.18;5.28;;;22.60;63.80;;;;;;5071306;28;20040;-75
2023/05/27 14:25:54;;;;;;;12.45;4.57;;;22.60;64.50;;;;;;5069028;28;20410;-76
2023/05/27 14:28:20;;;;;;;12.43;4.57;;;22.50;63.80;;;;;;5071759;28;20047;-76
2023/05/27 14:30:46;;;;;;;12.80;5.07;;;22.50;64.20;;;;;;5054768;28;20031;-76
2023/05/27 14:33:12;;;;;;;11.35;4.43;;;22.60;62.50;;;;;;5089404;28;20140;-76
2023/05/27 14:35:39;;;;;;;13.68;5.18;;;22.60;62.80;;;;;;5068709;28;20040;-76
2023/05/27 14:38:06;;;;;;;10.60;4.85;;;22.50;63.20;;;;;;5072669;28;20051;-75
2023/05/27 14:40:33;;;;;;;10.77;4.40;;;22.50;62.30;;;;;;5070203;28;20153;-78
2023/05/27 14:43:00;;;;;;;10.35;4.88;;;22.40;62.30;;;;;;5074514;28;20051;-76
2023/05/27 14:45:25;;;;;;;10.43;3.90;;;22.40;64.00;;;;;;5057500;28;20047;-76
2023/05/27 14:47:53;;;;;;;12.15;4.47;;;22.60;64.70;;;;;;5038121;28;20513;-75
2023/05/27 14:50:21;;;;;;;9.57;4.45;;;22.70;63.60;;;;;;5072257;28;20407;-75
2023/05/27 14:52:49;;;;;;;10.98;5.20;;;22.70;63.30;;;;;;5089478;28;20067;-76
2023/05/27 14:55:15;;;;;;;10.95;4.60;;;22.60;62.60;;;;;;5073503;28;20869;-76
2023/05/27 14:57:41;;;;;;;11.93;4.68;;;22.50;63.00;;;;;;5066089;28;20328;-75
2023/05/27 15:00:11;;;;;;;10.82;4.72;;;22.50;62.50;;;;;;5060528;28;20155;-76
2023/05/27 15:02:37;;;;;;;12.98;4.63;;;22.40;63.50;;;;;;5094647;28;20040;-75
2023/05/27 15:05:04;;;;;;;9.25;4.40;;;22.40;63.00;;;;;;5055998;28;20101;-75
2023/05/27 15:07:32;;;;;;;12.82;5.18;;;22.40;62.90;;;;;;5075027;28;20036;-75
2023/05/27 15:09:58;;;;;;;10.32;4.65;;;22.40;63.50;;;;;;5093032;28;20048;-75
2023/05/27 15:12:24;;;;;;;11.52;4.80;;;22.50;63.80;;;;;;5093532;28;20044;-76
2023/05/27 15:14:50;;;;;;;11.73;5.00;;;22.60;63.50;;;;;;5077353;28;20645;-76
2023/05/27 15:17:16;;;;;;;11.82;4.97;;;22.60;63.30;;;;;;5094089;28;20097;-75
2023/05/27 15:19:42;;;;;;;12.68;5.03;;;22.50;61.90;;;;;;5059979;28;20312;-76
2023/05/27 15:22:07;;;;;;;12.80;4.93;;;22.40;62.40;;;;;;5093627;28;20104;-76
2023/05/27 15:24:34;;;;;;;10.02;4.10;;;22.30;62.70;;;;;;5058875;28;21320;-75
2023/05/27 15:27:02;;;;;;;10.13;4.05;;;22.30;62.80;;;;;;5093518;28;20052;-75
2023/05/27 15:29:28;;;;;;;12.52;4.38;;;22.40;62.60;;;;;;5075205;28;20052;-76
2023/05/27 15:31:55;;;;;;;11.98;4.43;;;22.40;61.80;;;;;;5093494;28;20040;-75
2023/05/27 15:34:21;;;;;;;15.32;4.93;;;22.40;62.80;;;;;;5060392;28;20043;-76
2023/05/27 15:36:47;;;;;;;11.35;4.72;;;22.40;61.90;;;;;;5076128;28;20043;-75
2023/05/27 15:39:12;;;;;;;12.75;4.30;;;22.50;62.60;;;;;;5072815;28;20051;-75
2023/05/27 15:41:39;;;;;;;10.55;4.10;;;22.40;62.40;;;;;;5061915;28;20140;-76
2023/05/27 15:44:05;;;;;;;13.10;5.15;;;22.30;61.80;;;;;;5073717;28;20109;-76
2023/05/27 15:46:32;;;;;;;11.80;4.28;;;22.30;63.40;;;;;;5058320;28;20170;-76
2023/05/27 15:48:59;;;;;;;13.25;5.30;;;22.40;63.60;;;;;;5090935;28;20730;-76
2023/05/27 15:51:25;;;;;;;11.15;4.65;;;22.40;62.50;;;;;;5060982;28;20036;-75
2023/05/27 15:53:51;;;;;;;11.15;4.57;;;22.40;62.30;;;;;;5075965;28;20054;-76
2023/05/27 15:56:17;;;;;;;11.93;4.97;;;22.40;62.70;;;;;;5074324;28;20046;-75
2023/05/27 15:58:42;;;;;;;9.38;4.50;;;22.40;62.20;;;;;;5077685;28;20051;-75
2023/05/27 16:01:08;;;;;;;12.57;4.70;;;22.30;62.20;;;;;;5077666;28;20050;-75
2023/05/27 16:03:34;;;;;;;9.63;4.30;;;22.20;62.50;;;;;;5039216;28;20040;-75
2023/05/27 16:06:05;;;;;;;9.65;4.05;;;22.10;62.70;;;;;;5058941;28;20039;-75
2023/05/27 16:08:31;;;;;;;10.70;4.68;;;22.10;63.60;;;;;;5107713;27;20195;-75
2023/05/27 16:10:57;;;;;;;11.40;4.40;;;22.00;63.20;;;;;;5055953;28;20043;-75
2023/05/27 16:13:24;;;;;;;12.10;4.85;;;22.00;63.40;;;;;;5058507;28;20050;-75
2023/05/27 16:15:50;;;;;;;11.65;4.47;;;22.00;63.20;;;;;;5052345;28;20239;-74
2023/05/27 16:18:20;;;;;;;10.73;4.43;;;22.00;63.20;;;;;;5052257;28;20083;-75
2023/05/27 16:20:47;;;;;;;13.60;5.35;;;21.90;63.60;;;;;;5052824;28;20087;-74
2023/05/27 16:23:13;;;;;;;10.40;4.25;;;21.90;62.90;;;;;;5056516;28;20070;-75
2023/05/27 16:25:39;;;;;;;10.10;3.80;;;21.80;62.20;;;;;;5069121;28;20470;-75
2023/05/27 16:28:05;;;;;;;12.57;4.57;;;21.70;63.70;;;;;;5052522;28;20052;-75
2023/05/27 16:30:31;;;;;;;12.07;4.72;;;21.60;64.30;;;;;;5036353;28;20648;-76
2023/05/27 16:32:57;;;;;;;9.65;4.38;;;21.60;64.40;;;;;;5067963;28;20333;-75
2023/05/27 16:35:23;;;;;;;11.25;4.45;;;21.60;64.10;;;;;;5041001;28;20054;-75
2023/05/27 16:37:48;;;;;;;12.80;5.22;;;21.60;63.80;;;;;;5037333;28;20423;-73
2023/05/27 16:40:15;;;;;;;11.90;5.10;;;21.60;63.90;;;;;;5037337;28;20055;-75
2023/05/27 16:42:41;;;;;;;11.25;4.78;;;21.50;64.30;;;;;;5069137;28;20610;-75
2023/05/27 16:45:08;;;;;;;12.35;5.20;;;21.50;64.70;;;;;;5054111;28;20500;-75
2023/05/27 16:47:34;;;;;;;11.15;5.07;;;21.50;65.20;;;;;;5051958;28;20101;-75
2023/05/27 16:50:00;;;;;;;11.95;4.82;;;21.50;65.10;;;;;;5067510;28;20692;-73
2023/05/27 16:52:26;;;;;;;11.43;4.65;;;21.40;64.00;;;;;;5054242;28;20066;-75
2023/05/27 16:54:52;;;;;;;10.15;4.55;;;21.40;64.90;;;;;;5069644;28;20240;-74
2023/05/27 16:57:21;;;;;;;13.80;5.57;;;21.30;67.40;;;;;;5041796;28;20084;-75